sensor_id;sensor_type;location;lat;lon;timestamp;P1;durP1;ratioP1;P2;durP2;ratioP2
4585;SDS011;2305;50.118;8.952;2023-10-13T00:01:31;16.13;;;8.10;;
4585;SDS011;2305;50.118;8.952;2023-10-13T00:04:03;14.97;;;7.70;;
4585;SDS011;2305;50.118;8.952;2023-10-13T00:06:35;9.93;;;6.30;;
4585;SDS011;2305;50.118;8.952;2023-10-13T00:09:06;9.10;;;6.57;;
4585;SDS011;2305;50.118;8.952;2023-10-13T00:11:45;15.53;;;6.70;;
4585;SDS011;2305;50.118;8.952;2023-10-13T00:14:13;17.43;;;6.90;;
4585;SDS011;2305;50.118;8.952;2023-10-13T00:16:44;17.53;;;6.53;;
4585;SDS011;2305;50.118;8.952;2023-10-13T00:19:29;17.50;;;6.93;;
4585;SDS011;2305;50.118;8.952;2023-10-13T00:22:06;12.67;;;7.13;;
4585;SDS011;2305;50.118;8.952;2023-10-13T00:24:38;14.57;;;6.27;;
4585;SDS011;2305;50.118;8.952;2023-10-13T00:27:12;10.30;;;5.87;;
4585;SDS011;2305;50.118;8.952;2023-10-13T00:29:59;7.73;;;5.60;;
4585;SDS011;2305;50.118;8.952;2023-10-13T00:32:46;15.83;;;6.37;;
4585;SDS011;2305;50.118;8.952;2023-10-13T00:35:21;18.70;;;6.40;;
4585;SDS011;2305;50.118;8.952;2023-10-13T00:37:55;13.27;;;5.60;;
4585;SDS011;2305;50.118;8.952;2023-10-13T00:40:24;10.43;;;6.60;;
4585;SDS011;2305;50.118;8.952;2023-10-13T00:43:10;15.90;;;6.10;;
4585;SDS011;2305;50.118;8.952;2023-10-13T00:45:58;11.50;;;6.43;;
4585;SDS011;2305;50.118;8.952;2023-10-13T00:48:35;8.83;;;5.83;;
4585;SDS011;2305;50.118;8.952;2023-10-13T00:51:11;12.33;;;5.90;;
4585;SDS011;2305;50.118;8.952;2023-10-13T00:53:45;13.60;;;6.10;;
4585;SDS011;2305;50.118;8.952;2023-10-13T00:56:14;12.53;;;6.83;;
4585;SDS011;2305;50.118;8.952;2023-10-13T00:58:53;11.20;;;7.20;;
4585;SDS011;2305;50.118;8.952;2023-10-13T01:01:26;13.57;;;6.70;;
4585;SDS011;2305;50.118;8.952;2023-10-13T01:03:56;16.03;;;6.57;;
4585;SDS011;2305;50.118;8.952;2023-10-13T01:06:28;13.93;;;6.80;;
4585;SDS011;2305;50.118;8.952;2023-10-13T01:08:58;16.03;;;6.50;;
4585;SDS011;2305;50.118;8.952;2023-10-13T01:11:38;10.83;;;5.60;;
4585;SDS011;2305;50.118;8.952;2023-10-13T01:14:09;12.43;;;6.70;;
4585;SDS011;2305;50.118;8.952;2023-10-13T01:16:40;11.93;;;6.27;;
4585;SDS011;2305;50.118;8.952;2023-10-13T01:19:10;7.97;;;5.93;;
4585;SDS011;2305;50.118;8.952;2023-10-13T01:21:42;12.67;;;6.27;;
4585;SDS011;2305;50.118;8.952;2023-10-13T01:24:16;11.63;;;6.57;;
4585;SDS011;2305;50.118;8.952;2023-10-13T01:26:52;12.27;;;7.10;;
4585;SDS011;2305;50.118;8.952;2023-10-13T01:29:34;14.03;;;6.70;;
4585;SDS011;2305;50.118;8.952;2023-10-13T01:32:02;12.50;;;6.30;;
4585;SDS011;2305;50.118;8.952;2023-10-13T01:34:30;10.37;;;6.20;;
4585;SDS011;2305;50.118;8.952;2023-10-13T01:37:00;14.00;;;7.63;;
4585;SDS011;2305;50.118;8.952;2023-10-13T01:39:33;17.17;;;8.23;;
4585;SDS011;2305;50.118;8.952;2023-10-13T01:42:01;12.73;;;6.30;;
4585;SDS011;2305;50.118;8.952;2023-10-13T01:44:29;8.53;;;6.40;;
4585;SDS011;2305;50.118;8.952;2023-10-13T01:46:57;12.37;;;6.77;;
4585;SDS011;2305;50.118;8.952;2023-10-13T01:49:27;14.00;;;6.23;;
4585;SDS011;2305;50.118;8.952;2023-10-13T01:51:54;11.53;;;6.70;;
4585;SDS011;2305;50.118;8.952;2023-10-13T01:54:23;12.53;;;6.73;;
4585;SDS011;2305;50.118;8.952;2023-10-13T01:56:54;12.53;;;7.00;;
4585;SDS011;2305;50.118;8.952;2023-10-13T01:59:22;12.30;;;6.43;;
4585;SDS011;2305;50.118;8.952;2023-10-13T02:01:49;20.30;;;7.30;;
4585;SDS011;2305;50.118;8.952;2023-10-13T02:04:21;9.00;;;6.00;;
4585;SDS011;2305;50.118;8.952;2023-10-13T02:06:48;9.50;;;6.77;;
4585;SDS011;2305;50.118;8.952;2023-10-13T02:09:19;23.23;;;6.53;;
4585;SDS011;2305;50.118;8.952;2023-10-13T02:11:53;10.57;;;6.43;;
4585;SDS011;2305;50.118;8.952;2023-10-13T02:14:22;12.67;;;6.13;;
4585;SDS011;2305;50.118;8.952;2023-10-13T02:16:53;13.27;;;6.70;;
4585;SDS011;2305;50.118;8.952;2023-10-13T02:19:23;9.53;;;6.53;;
4585;SDS011;2305;50.118;8.952;2023-10-13T02:21:54;12.53;;;6.43;;
4585;SDS011;2305;50.118;8.952;2023-10-13T02:24:28;13.30;;;6.93;;
4585;SDS011;2305;50.118;8.952;2023-10-13T02:26:58;12.23;;;6.80;;
4585;SDS011;2305;50.118;8.952;2023-10-13T02:29:31;10.87;;;6.57;;
4585;SDS011;2305;50.118;8.952;2023-10-13T02:32:05;20.67;;;5.77;;
4585;SDS011;2305;50.118;8.952;2023-10-13T02:34:39;14.87;;;7.27;;
4585;SDS011;2305;50.118;8.952;2023-10-13T02:37:10;19.47;;;6.40;;
4585;SDS011;2305;50.118;8.952;2023-10-13T02:39:39;11.30;;;6.23;;
4585;SDS011;2305;50.118;8.952;2023-10-13T02:42:09;12.10;;;6.10;;
4585;SDS011;2305;50.118;8.952;2023-10-13T02:44:49;10.07;;;6.17;;
4585;SDS011;2305;50.118;8.952;2023-10-13T02:47:19;15.47;;;6.27;;
4585;SDS011;2305;50.118;8.952;2023-10-13T02:49:51;15.90;;;6.87;;
4585;SDS011;2305;50.118;8.952;2023-10-13T02:52:24;14.00;;;7.43;;
4585;SDS011;2305;50.118;8.952;2023-10-13T02:54:51;12.97;;;6.77;;
4585;SDS011;2305;50.118;8.952;2023-10-13T02:57:21;10.73;;;6.70;;
4585;SDS011;2305;50.118;8.952;2023-10-13T02:59:51;12.33;;;6.70;;
4585;SDS011;2305;50.118;8.952;2023-10-13T03:02:23;14.10;;;6.43;;
4585;SDS011;2305;50.118;8.952;2023-10-13T03:04:53;14.70;;;7.60;;
4585;SDS011;2305;50.118;8.952;2023-10-13T03:07:29;12.53;;;6.47;;
4585;SDS011;2305;50.118;8.952;2023-10-13T03:09:59;13.37;;;7.23;;
4585;SDS011;2305;50.118;8.952;2023-10-13T03:12:28;12.70;;;6.90;;
4585;SDS011;2305;50.118;8.952;2023-10-13T03:15:02;17.00;;;6.90;;
4585;SDS011;2305;50.118;8.952;2023-10-13T03:17:39;13.83;;;6.60;;
4585;SDS011;2305;50.118;8.952;2023-10-13T03:20:10;11.27;;;6.53;;
4585;SDS011;2305;50.118;8.952;2023-10-13T03:22:40;12.77;;;5.97;;
4585;SDS011;2305;50.118;8.952;2023-10-13T03:25:11;14.67;;;7.40;;
4585;SDS011;2305;50.118;8.952;2023-10-13T03:27:52;10.30;;;6.17;;
4585;SDS011;2305;50.118;8.952;2023-10-13T03:30:31;9.13;;;6.00;;
4585;SDS011;2305;50.118;8.952;2023-10-13T03:33:09;12.40;;;6.50;;
4585;SDS011;2305;50.118;8.952;2023-10-13T03:35:41;12.50;;;6.50;;
4585;SDS011;2305;50.118;8.952;2023-10-13T03:38:14;9.60;;;5.43;;
4585;SDS011;2305;50.118;8.952;2023-10-13T03:40:46;17.20;;;6.57;;
4585;SDS011;2305;50.118;8.952;2023-10-13T03:43:24;9.37;;;6.07;;
4585;SDS011;2305;50.118;8.952;2023-10-13T03:45:58;11.30;;;6.37;;
4585;SDS011;2305;50.118;8.952;2023-10-13T03:48:36;15.13;;;7.87;;
4585;SDS011;2305;50.118;8.952;2023-10-13T03:51:18;9.80;;;5.70;;
4585;SDS011;2305;50.118;8.952;2023-10-13T03:53:48;9.33;;;6.47;;
4585;SDS011;2305;50.118;8.952;2023-10-13T03:56:21;10.33;;;5.47;;
4585;SDS011;2305;50.118;8.952;2023-10-13T03:59:07;9.43;;;5.90;;
4585;SDS011;2305;50.118;8.952;2023-10-13T04:01:36;14.30;;;6.13;;
4585;SDS011;2305;50.118;8.952;2023-10-13T04:04:13;14.43;;;6.30;;
4585;SDS011;2305;50.118;8.952;2023-10-13T04:06:57;12.73;;;7.00;;
4585;SDS011;2305;50.118;8.952;2023-10-13T04:09:40;12.87;;;6.47;;
4585;SDS011;2305;50.118;8.952;2023-10-13T04:12:37;9.67;;;5.67;;
4585;SDS011;2305;50.118;8.952;2023-10-13T04:15:24;12.53;;;6.63;;
4585;SDS011;2305;50.118;8.952;2023-10-13T04:18:03;12.00;;;6.03;;
4585;SDS011;2305;50.118;8.952;2023-10-13T04:20:45;13.00;;;7.00;;
4585;SDS011;2305;50.118;8.952;2023-10-13T04:23:30;11.57;;;5.90;;
4585;SDS011;2305;50.118;8.952;2023-10-13T04:26:17;13.77;;;5.80;;
4585;SDS011;2305;50.118;8.952;2023-10-13T04:28:48;13.53;;;6.10;;
4585;SDS011;2305;50.118;8.952;2023-10-13T04:31:21;19.83;;;6.40;;
4585;SDS011;2305;50.118;8.952;2023-10-13T04:34:09;12.80;;;6.90;;
4585;SDS011;2305;50.118;8.952;2023-10-13T04:36:46;10.27;;;6.70;;
4585;SDS011;2305;50.118;8.952;2023-10-13T04:39:14;13.63;;;6.37;;
4585;SDS011;2305;50.118;8.952;2023-10-13T04:41:56;15.97;;;6.00;;
4585;SDS011;2305;50.118;8.952;2023-10-13T04:44:37;10.80;;;6.67;;
4585;SDS011;2305;50.118;8.952;2023-10-13T04:47:20;11.80;;;6.80;;
4585;SDS011;2305;50.118;8.952;2023-10-13T04:49:51;17.43;;;7.60;;
4585;SDS011;2305;50.118;8.952;2023-10-13T04:52:21;10.00;;;5.73;;
4585;SDS011;2305;50.118;8.952;2023-10-13T04:55:33;13.97;;;6.60;;
4585;SDS011;2305;50.118;8.952;2023-10-13T04:58:28;9.67;;;6.07;;
4585;SDS011;2305;50.118;8.952;2023-10-13T05:01:30;15.57;;;5.50;;
4585;SDS011;2305;50.118;8.952;2023-10-13T05:04:18;16.63;;;6.07;;
4585;SDS011;2305;50.118;8.952;2023-10-13T05:06:57;11.70;;;5.60;;
4585;SDS011;2305;50.118;8.952;2023-10-13T05:09:43;11.00;;;5.67;;
4585;SDS011;2305;50.118;8.952;2023-10-13T05:12:29;13.20;;;6.20;;
4585;SDS011;2305;50.118;8.952;2023-10-13T05:15:14;10.23;;;6.00;;
4585;SDS011;2305;50.118;8.952;2023-10-13T05:18:00;10.70;;;6.67;;
4585;SDS011;2305;50.118;8.952;2023-10-13T05:20:47;16.93;;;8.20;;
4585;SDS011;2305;50.118;8.952;2023-10-13T05:23:32;10.50;;;6.60;;
4585;SDS011;2305;50.118;8.952;2023-10-13T05:26:18;22.43;;;7.10;;
4585;SDS011;2305;50.118;8.952;2023-10-13T05:32:14;12.70;;;6.67;;
4585;SDS011;2305;50.118;8.952;2023-10-13T05:35:03;12.73;;;6.90;;
4585;SDS011;2305;50.118;8.952;2023-10-13T05:37:52;11.17;;;7.70;;
4585;SDS011;2305;50.118;8.952;2023-10-13T05:40:38;11.03;;;6.93;;
4585;SDS011;2305;50.118;8.952;2023-10-13T05:43:23;20.60;;;7.03;;
4585;SDS011;2305;50.118;8.952;2023-10-13T05:46:09;17.10;;;7.37;;
4585;SDS011;2305;50.118;8.952;2023-10-13T05:49:15;12.80;;;7.10;;
4585;SDS011;2305;50.118;8.952;2023-10-13T05:52:16;15.93;;;7.43;;
4585;SDS011;2305;50.118;8.952;2023-10-13T05:55:09;12.87;;;7.20;;
4585;SDS011;2305;50.118;8.952;2023-10-13T05:57:55;13.97;;;6.67;;
4585;SDS011;2305;50.118;8.952;2023-10-13T06:00:46;13.93;;;8.07;;
4585;SDS011;2305;50.118;8.952;2023-10-13T06:03:32;15.20;;;5.93;;
4585;SDS011;2305;50.118;8.952;2023-10-13T06:06:20;14.97;;;6.73;;
4585;SDS011;2305;50.118;8.952;2023-10-13T06:09:05;17.37;;;7.70;;
4585;SDS011;2305;50.118;8.952;2023-10-13T06:11:53;14.97;;;7.07;;
4585;SDS011;2305;50.118;8.952;2023-10-13T06:14:39;11.20;;;6.63;;
4585;SDS011;2305;50.118;8.952;2023-10-13T06:17:25;14.10;;;7.03;;
4585;SDS011;2305;50.118;8.952;2023-10-13T06:20:11;12.10;;;7.20;;
4585;SDS011;2305;50.118;8.952;2023-10-13T06:22:56;15.83;;;7.50;;
4585;SDS011;2305;50.118;8.952;2023-10-13T06:25:42;13.37;;;7.53;;
4585;SDS011;2305;50.118;8.952;2023-10-13T06:28:29;15.13;;;8.17;;
4585;SDS011;2305;50.118;8.952;2023-10-13T06:31:10;16.00;;;7.43;;
4585;SDS011;2305;50.118;8.952;2023-10-13T06:33:48;9.80;;;6.43;;
4585;SDS011;2305;50.118;8.952;2023-10-13T06:36:19;15.97;;;6.87;;
4585;SDS011;2305;50.118;8.952;2023-10-13T06:38:47;11.43;;;6.50;;
4585;SDS011;2305;50.118;8.952;2023-10-13T06:41:22;14.00;;;5.57;;
4585;SDS011;2305;50.118;8.952;2023-10-13T06:44:08;13.33;;;6.60;;
4585;SDS011;2305;50.118;8.952;2023-10-13T06:46:42;9.30;;;5.97;;
4585;SDS011;2305;50.118;8.952;2023-10-13T06:49:11;11.00;;;7.17;;
4585;SDS011;2305;50.118;8.952;2023-10-13T06:51:40;13.93;;;6.50;;
4585;SDS011;2305;50.118;8.952;2023-10-13T06:54:09;16.70;;;6.60;;
4585;SDS011;2305;50.118;8.952;2023-10-13T06:56:46;15.43;;;7.67;;
4585;SDS011;2305;50.118;8.952;2023-10-13T06:59:20;11.80;;;7.20;;
4585;SDS011;2305;50.118;8.952;2023-10-13T07:01:56;10.30;;;5.87;;
4585;SDS011;2305;50.118;8.952;2023-10-13T07:04:50;15.60;;;6.13;;
4585;SDS011;2305;50.118;8.952;2023-10-13T07:07:23;12.90;;;6.60;;
4585;SDS011;2305;50.118;8.952;2023-10-13T07:09:51;13.50;;;6.67;;
4585;SDS011;2305;50.118;8.952;2023-10-13T07:12:24;19.43;;;7.03;;
4585;SDS011;2305;50.118;8.952;2023-10-13T07:14:55;16.43;;;6.03;;
4585;SDS011;2305;50.118;8.952;2023-10-13T07:17:38;9.70;;;5.80;;
4585;SDS011;2305;50.118;8.952;2023-10-13T07:20:07;13.67;;;5.63;;
4585;SDS011;2305;50.118;8.952;2023-10-13T07:22:49;13.90;;;5.90;;
4585;SDS011;2305;50.118;8.952;2023-10-13T07:25:26;14.03;;;6.30;;
4585;SDS011;2305;50.118;8.952;2023-10-13T07:27:59;10.17;;;6.20;;
4585;SDS011;2305;50.118;8.952;2023-10-13T07:30:28;9.77;;;5.70;;
4585;SDS011;2305;50.118;8.952;2023-10-13T07:32:57;9.13;;;5.30;;
4585;SDS011;2305;50.118;8.952;2023-10-13T07:35:29;10.90;;;5.80;;
4585;SDS011;2305;50.118;8.952;2023-10-13T07:38:02;12.93;;;5.90;;
4585;SDS011;2305;50.118;8.952;2023-10-13T07:40:34;10.70;;;6.30;;
4585;SDS011;2305;50.118;8.952;2023-10-13T07:43:08;13.57;;;6.60;;
4585;SDS011;2305;50.118;8.952;2023-10-13T07:45:43;11.83;;;6.07;;
4585;SDS011;2305;50.118;8.952;2023-10-13T07:48:15;15.03;;;5.97;;
4585;SDS011;2305;50.118;8.952;2023-10-13T07:50:47;12.77;;;5.63;;
4585;SDS011;2305;50.118;8.952;2023-10-13T07:53:16;19.50;;;6.40;;
4585;SDS011;2305;50.118;8.952;2023-10-13T07:55:49;9.10;;;4.90;;
4585;SDS011;2305;50.118;8.952;2023-10-13T07:58:22;10.37;;;5.47;;
4585;SDS011;2305;50.118;8.952;2023-10-13T08:00:53;10.13;;;5.50;;
4585;SDS011;2305;50.118;8.952;2023-10-13T08:03:33;12.93;;;5.60;;
4585;SDS011;2305;50.118;8.952;2023-10-13T08:06:23;14.53;;;7.07;;
4585;SDS011;2305;50.118;8.952;2023-10-13T08:08:57;10.53;;;5.90;;
4585;SDS011;2305;50.118;8.952;2023-10-13T08:11:38;12.77;;;5.80;;
4585;SDS011;2305;50.118;8.952;2023-10-13T08:14:10;11.30;;;5.40;;
4585;SDS011;2305;50.118;8.952;2023-10-13T08:17:07;12.30;;;5.33;;
4585;SDS011;2305;50.118;8.952;2023-10-13T08:19:39;11.23;;;6.07;;
4585;SDS011;2305;50.118;8.952;2023-10-13T08:22:13;14.77;;;7.00;;
4585;SDS011;2305;50.118;8.952;2023-10-13T08:25:05;10.60;;;5.13;;
4585;SDS011;2305;50.118;8.952;2023-10-13T08:27:51;12.33;;;5.07;;
4585;SDS011;2305;50.118;8.952;2023-10-13T08:30:49;11.37;;;4.90;;
4585;SDS011;2305;50.118;8.952;2023-10-13T08:33:22;16.50;;;5.53;;
4585;SDS011;2305;50.118;8.952;2023-10-13T08:35:55;17.13;;;5.70;;
4585;SDS011;2305;50.118;8.952;2023-10-13T08:38:44;17.37;;;5.40;;
4585;SDS011;2305;50.118;8.952;2023-10-13T08:41:18;12.40;;;5.00;;
4585;SDS011;2305;50.118;8.952;2023-10-13T08:44:02;12.57;;;4.60;;
4585;SDS011;2305;50.118;8.952;2023-10-13T08:46:36;9.00;;;4.40;;
4585;SDS011;2305;50.118;8.952;2023-10-13T08:49:36;11.07;;;5.67;;
4585;SDS011;2305;50.118;8.952;2023-10-13T08:52:37;14.47;;;4.70;;
4585;SDS011;2305;50.118;8.952;2023-10-13T08:55:14;11.40;;;5.00;;
4585;SDS011;2305;50.118;8.952;2023-10-13T08:57:59;13.07;;;5.17;;
4585;SDS011;2305;50.118;8.952;2023-10-13T09:00:40;16.93;;;5.27;;
4585;SDS011;2305;50.118;8.952;2023-10-13T09:03:39;10.67;;;5.30;;
4585;SDS011;2305;50.118;8.952;2023-10-13T09:06:12;10.90;;;5.13;;
4585;SDS011;2305;50.118;8.952;2023-10-13T09:08:42;9.23;;;4.87;;
4585;SDS011;2305;50.118;8.952;2023-10-13T09:11:31;10.37;;;4.80;;
4585;SDS011;2305;50.118;8.952;2023-10-13T09:14:16;12.37;;;4.70;;
4585;SDS011;2305;50.118;8.952;2023-10-13T09:17:06;10.87;;;4.63;;
4585;SDS011;2305;50.118;8.952;2023-10-13T09:20:01;17.33;;;4.50;;
4585;SDS011;2305;50.118;8.952;2023-10-13T09:22:52;8.03;;;4.97;;
4585;SDS011;2305;50.118;8.952;2023-10-13T09:25:34;19.00;;;4.27;;
4585;SDS011;2305;50.118;8.952;2023-10-13T09:28:10;11.93;;;5.10;;
4585;SDS011;2305;50.118;8.952;2023-10-13T09:30:42;14.17;;;4.53;;
4585;SDS011;2305;50.118;8.952;2023-10-13T09:33:13;15.83;;;4.83;;
4585;SDS011;2305;50.118;8.952;2023-10-13T09:35:43;6.87;;;4.00;;
4585;SDS011;2305;50.118;8.952;2023-10-13T09:38:17;10.00;;;4.20;;
4585;SDS011;2305;50.118;8.952;2023-10-13T09:40:44;11.90;;;4.43;;
4585;SDS011;2305;50.118;8.952;2023-10-13T09:43:17;12.90;;;4.77;;
4585;SDS011;2305;50.118;8.952;2023-10-13T09:45:46;12.13;;;4.23;;
4585;SDS011;2305;50.118;8.952;2023-10-13T09:48:33;11.57;;;4.57;;
4585;SDS011;2305;50.118;8.952;2023-10-13T09:51:01;11.87;;;4.63;;
4585;SDS011;2305;50.118;8.952;2023-10-13T09:53:37;7.43;;;4.33;;
4585;SDS011;2305;50.118;8.952;2023-10-13T09:56:27;8.17;;;3.77;;
4585;SDS011;2305;50.118;8.952;2023-10-13T09:59:04;6.87;;;4.37;;
4585;SDS011;2305;50.118;8.952;2023-10-13T10:01:37;7.70;;;4.10;;
4585;SDS011;2305;50.118;8.952;2023-10-13T10:04:17;10.40;;;4.10;;
4585;SDS011;2305;50.118;8.952;2023-10-13T10:06:51;8.30;;;3.70;;
4585;SDS011;2305;50.118;8.952;2023-10-13T10:09:27;9.00;;;4.40;;
4585;SDS011;2305;50.118;8.952;2023-10-13T10:12:13;11.03;;;4.27;;
4585;SDS011;2305;50.118;8.952;2023-10-13T10:17:54;6.53;;;3.87;;
4585;SDS011;2305;50.118;8.952;2023-10-13T10:20:28;13.30;;;4.30;;
4585;SDS011;2305;50.118;8.952;2023-10-13T10:23:24;7.10;;;4.13;;
4585;SDS011;2305;50.118;8.952;2023-10-13T10:25:55;8.10;;;4.57;;
4585;SDS011;2305;50.118;8.952;2023-10-13T10:28:35;9.60;;;4.50;;
4585;SDS011;2305;50.118;8.952;2023-10-13T10:31:06;10.97;;;3.80;;
4585;SDS011;2305;50.118;8.952;2023-10-13T10:33:36;9.47;;;4.33;;
4585;SDS011;2305;50.118;8.952;2023-10-13T10:36:04;9.17;;;4.63;;
4585;SDS011;2305;50.118;8.952;2023-10-13T10:38:33;10.00;;;4.60;;
4585;SDS011;2305;50.118;8.952;2023-10-13T10:41:03;7.90;;;3.77;;
4585;SDS011;2305;50.118;8.952;2023-10-13T10:43:38;9.10;;;4.30;;
4585;SDS011;2305;50.118;8.952;2023-10-13T10:46:13;9.30;;;4.20;;
4585;SDS011;2305;50.118;8.952;2023-10-13T10:48:44;12.60;;;4.77;;
4585;SDS011;2305;50.118;8.952;2023-10-13T10:51:13;8.30;;;4.23;;
4585;SDS011;2305;50.118;8.952;2023-10-13T10:53:50;8.93;;;4.97;;
4585;SDS011;2305;50.118;8.952;2023-10-13T10:56:21;10.00;;;4.13;;
4585;SDS011;2305;50.118;8.952;2023-10-13T10:58:56;8.20;;;3.97;;
4585;SDS011;2305;50.118;8.952;2023-10-13T11:01:27;9.77;;;4.07;;
4585;SDS011;2305;50.118;8.952;2023-10-13T11:04:07;6.20;;;3.67;;
4585;SDS011;2305;50.118;8.952;2023-10-13T11:06:44;13.97;;;4.27;;
4585;SDS011;2305;50.118;8.952;2023-10-13T11:09:13;8.33;;;4.53;;
4585;SDS011;2305;50.118;8.952;2023-10-13T11:12:09;8.50;;;4.70;;
4585;SDS011;2305;50.118;8.952;2023-10-13T11:14:59;6.37;;;4.23;;
4585;SDS011;2305;50.118;8.952;2023-10-13T11:17:29;6.87;;;4.30;;
4585;SDS011;2305;50.118;8.952;2023-10-13T11:20:09;13.23;;;4.43;;
4585;SDS011;2305;50.118;8.952;2023-10-13T11:22:45;12.13;;;4.47;;
4585;SDS011;2305;50.118;8.952;2023-10-13T11:25:21;7.00;;;4.40;;
4585;SDS011;2305;50.118;8.952;2023-10-13T11:27:58;7.03;;;4.10;;
4585;SDS011;2305;50.118;8.952;2023-10-13T11:30:36;12.40;;;4.43;;
4585;SDS011;2305;50.118;8.952;2023-10-13T11:33:12;7.80;;;4.50;;
4585;SDS011;2305;50.118;8.952;2023-10-13T11:35:45;6.57;;;3.60;;
4585;SDS011;2305;50.118;8.952;2023-10-13T11:38:24;6.63;;;4.20;;
4585;SDS011;2305;50.118;8.952;2023-10-13T11:40:53;11.33;;;4.50;;
4585;SDS011;2305;50.118;8.952;2023-10-13T11:43:50;7.43;;;4.40;;
4585;SDS011;2305;50.118;8.952;2023-10-13T11:46:39;14.23;;;4.30;;
4585;SDS011;2305;50.118;8.952;2023-10-13T11:49:21;12.17;;;4.50;;
4585;SDS011;2305;50.118;8.952;2023-10-13T11:52:00;9.10;;;4.90;;
4585;SDS011;2305;50.118;8.952;2023-10-13T11:54:43;8.40;;;4.10;;
4585;SDS011;2305;50.118;8.952;2023-10-13T11:57:14;9.23;;;4.47;;
4585;SDS011;2305;50.118;8.952;2023-10-13T11:59:48;9.50;;;4.57;;
4585;SDS011;2305;50.118;8.952;2023-10-13T12:02:46;8.63;;;3.97;;
4585;SDS011;2305;50.118;8.952;2023-10-13T12:05:32;10.50;;;4.50;;
4585;SDS011;2305;50.118;8.952;2023-10-13T12:08:19;12.33;;;4.30;;
4585;SDS011;2305;50.118;8.952;2023-10-13T12:11:01;6.10;;;3.87;;
4585;SDS011;2305;50.118;8.952;2023-10-13T12:13:49;8.43;;;4.40;;
4585;SDS011;2305;50.118;8.952;2023-10-13T12:16:19;7.07;;;4.40;;
4585;SDS011;2305;50.118;8.952;2023-10-13T12:18:48;10.17;;;4.13;;
4585;SDS011;2305;50.118;8.952;2023-10-13T12:21:22;20.00;;;4.60;;
4585;SDS011;2305;50.118;8.952;2023-10-13T12:23:58;6.57;;;4.70;;
4585;SDS011;2305;50.118;8.952;2023-10-13T12:26:31;7.50;;;4.30;;
4585;SDS011;2305;50.118;8.952;2023-10-13T12:29:00;7.90;;;4.30;;
4585;SDS011;2305;50.118;8.952;2023-10-13T12:31:36;8.90;;;4.57;;
4585;SDS011;2305;50.118;8.952;2023-10-13T12:34:09;6.20;;;3.57;;
4585;SDS011;2305;50.118;8.952;2023-10-13T12:37:02;5.37;;;3.77;;
4585;SDS011;2305;50.118;8.952;2023-10-13T12:39:46;7.77;;;4.17;;
4585;SDS011;2305;50.118;8.952;2023-10-13T12:42:33;6.00;;;3.60;;
4585;SDS011;2305;50.118;8.952;2023-10-13T12:45:20;10.20;;;4.10;;
4585;SDS011;2305;50.118;8.952;2023-10-13T12:48:07;8.80;;;4.47;;
4585;SDS011;2305;50.118;8.952;2023-10-13T12:50:53;9.13;;;4.87;;
4585;SDS011;2305;50.118;8.952;2023-10-13T12:53:34;8.83;;;4.13;;
4585;SDS011;2305;50.118;8.952;2023-10-13T12:56:06;11.20;;;4.10;;
4585;SDS011;2305;50.118;8.952;2023-10-13T12:58:38;8.93;;;3.90;;
4585;SDS011;2305;50.118;8.952;2023-10-13T13:01:06;15.50;;;4.77;;
4585;SDS011;2305;50.118;8.952;2023-10-13T13:03:36;6.53;;;4.23;;
4585;SDS011;2305;50.118;8.952;2023-10-13T13:06:08;9.60;;;4.10;;
4585;SDS011;2305;50.118;8.952;2023-10-13T13:08:44;6.70;;;4.10;;
4585;SDS011;2305;50.118;8.952;2023-10-13T13:11:13;12.23;;;3.80;;
4585;SDS011;2305;50.118;8.952;2023-10-13T13:13:43;6.60;;;3.97;;
4585;SDS011;2305;50.118;8.952;2023-10-13T13:16:16;8.53;;;4.40;;
4585;SDS011;2305;50.118;8.952;2023-10-13T13:18:54;7.00;;;4.97;;
4585;SDS011;2305;50.118;8.952;2023-10-13T13:21:28;9.00;;;4.00;;
4585;SDS011;2305;50.118;8.952;2023-10-13T13:23:57;5.47;;;3.60;;
4585;SDS011;2305;50.118;8.952;2023-10-13T13:26:31;9.03;;;3.70;;
4585;SDS011;2305;50.118;8.952;2023-10-13T13:29:01;7.97;;;5.70;;
4585;SDS011;2305;50.118;8.952;2023-10-13T13:31:33;14.10;;;3.80;;
4585;SDS011;2305;50.118;8.952;2023-10-13T13:34:11;15.20;;;4.40;;
4585;SDS011;2305;50.118;8.952;2023-10-13T13:36:41;8.73;;;3.50;;
4585;SDS011;2305;50.118;8.952;2023-10-13T13:39:11;7.87;;;4.00;;
4585;SDS011;2305;50.118;8.952;2023-10-13T13:41:49;8.83;;;3.70;;
4585;SDS011;2305;50.118;8.952;2023-10-13T13:44:25;7.97;;;4.30;;
4585;SDS011;2305;50.118;8.952;2023-10-13T13:47:04;9.60;;;4.57;;
4585;SDS011;2305;50.118;8.952;2023-10-13T13:49:44;6.20;;;4.00;;
4585;SDS011;2305;50.118;8.952;2023-10-13T13:52:20;8.80;;;4.07;;
4585;SDS011;2305;50.118;8.952;2023-10-13T13:55:00;8.17;;;3.50;;
4585;SDS011;2305;50.118;8.952;2023-10-13T13:57:29;15.50;;;3.73;;
4585;SDS011;2305;50.118;8.952;2023-10-13T13:59:59;7.70;;;4.10;;
4585;SDS011;2305;50.118;8.952;2023-10-13T14:02:47;5.90;;;3.90;;
4585;SDS011;2305;50.118;8.952;2023-10-13T14:05:19;6.33;;;4.50;;
4585;SDS011;2305;50.118;8.952;2023-10-13T14:07:48;5.93;;;3.63;;
4585;SDS011;2305;50.118;8.952;2023-10-13T14:10:16;5.87;;;3.67;;
4585;SDS011;2305;50.118;8.952;2023-10-13T14:13:00;8.40;;;3.60;;
4585;SDS011;2305;50.118;8.952;2023-10-13T14:15:33;7.67;;;4.00;;
4585;SDS011;2305;50.118;8.952;2023-10-13T14:18:11;7.17;;;3.53;;
4585;SDS011;2305;50.118;8.952;2023-10-13T14:20:48;6.40;;;3.50;;
4585;SDS011;2305;50.118;8.952;2023-10-13T14:23:18;5.17;;;3.77;;
4585;SDS011;2305;50.118;8.952;2023-10-13T14:25:53;8.33;;;3.40;;
4585;SDS011;2305;50.118;8.952;2023-10-13T14:28:23;8.57;;;3.60;;
4585;SDS011;2305;50.118;8.952;2023-10-13T14:31:04;8.10;;;3.73;;
4585;SDS011;2305;50.118;8.952;2023-10-13T14:33:37;8.47;;;4.13;;
4585;SDS011;2305;50.118;8.952;2023-10-13T14:36:07;11.50;;;3.77;;
4585;SDS011;2305;50.118;8.952;2023-10-13T14:38:42;8.50;;;4.00;;
4585;SDS011;2305;50.118;8.952;2023-10-13T14:41:14;20.13;;;4.13;;
4585;SDS011;2305;50.118;8.952;2023-10-13T14:43:42;11.03;;;4.63;;
4585;SDS011;2305;50.118;8.952;2023-10-13T14:46:14;10.00;;;3.90;;
4585;SDS011;2305;50.118;8.952;2023-10-13T14:48:44;9.03;;;3.90;;
4585;SDS011;2305;50.118;8.952;2023-10-13T14:51:19;11.37;;;3.77;;
4585;SDS011;2305;50.118;8.952;2023-10-13T14:53:52;6.17;;;3.20;;
4585;SDS011;2305;50.118;8.952;2023-10-13T14:56:25;6.57;;;3.60;;
4585;SDS011;2305;50.118;8.952;2023-10-13T14:58:55;6.40;;;3.77;;
4585;SDS011;2305;50.118;8.952;2023-10-13T15:01:23;6.07;;;3.47;;
4585;SDS011;2305;50.118;8.952;2023-10-13T15:03:54;9.03;;;3.50;;
4585;SDS011;2305;50.118;8.952;2023-10-13T15:06:26;8.57;;;3.90;;
4585;SDS011;2305;50.118;8.952;2023-10-13T15:08:57;9.47;;;3.67;;
4585;SDS011;2305;50.118;8.952;2023-10-13T15:11:28;5.80;;;3.20;;
4585;SDS011;2305;50.118;8.952;2023-10-13T15:14:17;9.87;;;4.23;;
4585;SDS011;2305;50.118;8.952;2023-10-13T15:16:47;8.53;;;4.00;;
4585;SDS011;2305;50.118;8.952;2023-10-13T15:19:18;8.30;;;3.80;;
4585;SDS011;2305;50.118;8.952;2023-10-13T15:21:51;6.60;;;3.27;;
4585;SDS011;2305;50.118;8.952;2023-10-13T15:24:21;6.63;;;3.57;;
4585;SDS011;2305;50.118;8.952;2023-10-13T15:26:57;12.57;;;3.70;;
4585;SDS011;2305;50.118;8.952;2023-10-13T15:29:30;7.20;;;4.13;;
4585;SDS011;2305;50.118;8.952;2023-10-13T15:32:04;9.40;;;4.03;;
4585;SDS011;2305;50.118;8.952;2023-10-13T15:34:53;12.13;;;3.37;;
4585;SDS011;2305;50.118;8.952;2023-10-13T15:37:25;7.93;;;4.10;;
4585;SDS011;2305;50.118;8.952;2023-10-13T15:39:56;8.53;;;4.10;;
4585;SDS011;2305;50.118;8.952;2023-10-13T15:42:29;8.57;;;4.23;;
4585;SDS011;2305;50.118;8.952;2023-10-13T15:45:02;7.83;;;3.70;;
4585;SDS011;2305;50.118;8.952;2023-10-13T15:47:46;8.30;;;4.23;;
4585;SDS011;2305;50.118;8.952;2023-10-13T15:50:20;18.93;;;4.27;;
4585;SDS011;2305;50.118;8.952;2023-10-13T15:52:53;8.53;;;4.23;;
4585;SDS011;2305;50.118;8.952;2023-10-13T15:55:36;9.43;;;4.30;;
4585;SDS011;2305;50.118;8.952;2023-10-13T15:58:09;14.57;;;4.07;;
4585;SDS011;2305;50.118;8.952;2023-10-13T16:00:38;8.23;;;4.03;;
4585;SDS011;2305;50.118;8.952;2023-10-13T16:03:06;11.27;;;4.20;;
4585;SDS011;2305;50.118;8.952;2023-10-13T16:05:40;7.73;;;4.40;;
4585;SDS011;2305;50.118;8.952;2023-10-13T16:08:11;17.23;;;4.20;;
4585;SDS011;2305;50.118;8.952;2023-10-13T16:10:40;13.67;;;4.87;;
4585;SDS011;2305;50.118;8.952;2023-10-13T16:13:08;6.63;;;4.30;;